Time;durP1;ratioP1;P1;durP2;ratioP2;P2;SDS_P1;SDS_P2;PMS_P1;PMS_P2;Temp;Humidity;BMP_temperature;BMP_pressure;BME280_temperature;BME280_humidity;BME280_pressure;Samples;Min_cycle;Max_cycle;Signal;HPM_P1;HPM_P2
2022/01/03 00:01:48;;;;;;;11.17;2.87;;;;;;;;;;5013668;28;20229;-69
2022/01/03 00:04:17;;;;;;;14.37;2.93;;;;;;;;;;5014076;28;20213;-69
2022/01/03 00:06:44;;;;;;;12.43;2.90;;;;;;;;;;5013383;28;20221;-69
2022/01/03 00:09:11;;;;;;;11.90;2.80;;;;;;;;;;5013348;28;20228;-69
2022/01/03 00:11:39;;;;;;;10.20;2.60;;;;;;;;;;5015658;28;20271;-69
2022/01/03 00:14:06;;;;;;;13.67;3.30;;;;;;;;;;5013621;28;20209;-69
2022/01/03 00:16:34;;;;;;;11.10;3.20;;;;;;;;;;5013392;28;20240;-68
2022/01/03 00:19:00;;;;;;;12.40;2.83;;;;;;;;;;5015100;28;20216;-69
2022/01/03 00:21:30;;;;;;;13.37;3.10;;;;;;;;;;5013027;28;20299;-70
2022/01/03 00:24:05;;;;;;;17.10;3.17;;;;;;;;;;5012868;28;20395;-69
2022/01/03 00:26:34;;;;;;;11.73;3.33;;;;;;;;;;5013839;28;20287;-69
2022/01/03 00:29:09;;;;;;;11.63;3.03;;;;;;;;;;5015804;28;20287;-69
2022/01/03 00:31:38;;;;;;;11.67;2.83;;;;;;;;;;5013028;28;20236;-69
2022/01/03 00:34:08;;;;;;;12.40;2.80;;;;;;;;;;5011916;28;20211;-69
2022/01/03 00:36:35;;;;;;;10.10;3.10;;;;;;;;;;5014288;28;20315;-69
2022/01/03 00:39:02;;;;;;;7.07;2.77;;;;;;;;;;5012967;28;20245;-69
2022/01/03 00:41:28;;;;;;;14.70;3.53;;;;;;;;;;5012993;28;20296;-68
2022/01/03 00:43:55;;;;;;;12.40;2.60;;;;;;;;;;5015943;28;20319;-69
2022/01/03 00:46:22;;;;;;;13.03;3.20;;;;;;;;;;5012854;28;21083;-68
2022/01/03 00:48:50;;;;;;;8.33;2.70;;;;;;;;;;5014146;28;20214;-69
2022/01/03 00:51:19;;;;;;;11.60;2.90;;;;;;;;;;5014293;28;20236;-68
2022/01/03 00:53:47;;;;;;;14.60;3.37;;;;;;;;;;5013030;28;20248;-69
2022/01/03 00:56:16;;;;;;;31.27;3.07;;;;;;;;;;5013123;28;20375;-69
2022/01/03 00:58:48;;;;;;;12.10;2.80;;;;;;;;;;5014623;28;20679;-69
2022/01/03 01:01:18;;;;;;;8.60;2.47;;;;;;;;;;5011382;28;20212;-70
2022/01/03 01:03:48;;;;;;;11.67;2.70;;;;;;;;;;5014036;28;20225;-69
2022/01/03 01:06:17;;;;;;;10.00;2.27;;;;;;;;;;5013472;28;20218;-69
2022/01/03 01:08:44;;;;;;;10.03;2.67;;;;;;;;;;5012516;28;20268;-69
2022/01/03 01:11:11;;;;;;;11.53;3.00;;;;;;;;;;5011724;28;20322;-69
2022/01/03 01:13:39;;;;;;;11.90;3.30;;;;;;;;;;5013398;28;20208;-69
2022/01/03 01:16:07;;;;;;;14.57;3.00;;;;;;;;;;5013494;28;20212;-69
2022/01/03 01:18:36;;;;;;;10.57;3.13;;;;;;;;;;5012893;28;20652;-69
2022/01/03 01:21:03;;;;;;;10.70;2.60;;;;;;;;;;5013145;28;20270;-69
2022/01/03 01:23:31;;;;;;;10.37;2.30;;;;;;;;;;5012437;28;20227;-69
2022/01/03 01:28:41;;;;;;;11.53;3.27;;;;;;;;;;5012572;28;20236;-69
2022/01/03 01:31:09;;;;;;;14.93;3.20;;;;;;;;;;5013252;28;20235;-69
2022/01/03 01:33:38;;;;;;;10.43;2.97;;;;;;;;;;5012195;28;20754;-70
2022/01/03 01:36:06;;;;;;;12.33;3.00;;;;;;;;;;5011937;28;20238;-70
2022/01/03 01:38:35;;;;;;;12.70;2.73;;;;;;;;;;5012648;28;20211;-70
2022/01/03 01:41:05;;;;;;;15.73;3.23;;;;;;;;;;5012038;28;21151;-70
2022/01/03 01:43:36;;;;;;;11.87;2.93;;;;;;;;;;5012373;28;20211;-70
2022/01/03 01:46:06;;;;;;;10.40;2.80;;;;;;;;;;5012519;28;20216;-70
2022/01/03 01:48:35;;;;;;;16.17;3.30;;;;;;;;;;5011518;28;20294;-69
2022/01/03 01:51:02;;;;;;;11.77;2.97;;;;;;;;;;5012366;28;20281;-69
2022/01/03 01:53:29;;;;;;;12.13;3.20;;;;;;;;;;5012535;28;20259;-69
2022/01/03 01:55:59;;;;;;;15.57;2.97;;;;;;;;;;5013427;28;20708;-69
2022/01/03 01:58:30;;;;;;;12.97;3.23;;;;;;;;;;5011148;28;20344;-70
2022/01/03 02:00:59;;;;;;;17.33;3.87;;;;;;;;;;5012666;28;20322;-70
2022/01/03 02:03:38;;;;;;;17.23;3.67;;;;;;;;;;5013270;28;20276;-69
2022/01/03 02:06:19;;;;;;;19.50;4.03;;;;;;;;;;5010630;28;20263;-69
2022/01/03 02:08:53;;;;;;;14.17;3.40;;;;;;;;;;5012318;28;20205;-70
2022/01/03 02:11:28;;;;;;;12.67;3.00;;;;;;;;;;5012676;28;20229;-69
2022/01/03 02:13:54;;;;;;;24.63;4.33;;;;;;;;;;5012546;28;20223;-70
2022/01/03 02:16:21;;;;;;;15.43;3.40;;;;;;;;;;5011985;28;20236;-69
2022/01/03 02:18:47;;;;;;;12.83;3.43;;;;;;;;;;5011807;28;20261;-69
2022/01/03 02:21:17;;;;;;;23.53;3.83;;;;;;;;;;5012143;28;20208;-69
2022/01/03 02:23:43;;;;;;;15.13;3.93;;;;;;;;;;5013746;28;20237;-70
2022/01/03 02:26:10;;;;;;;12.23;3.00;;;;;;;;;;5015858;28;20229;-69
2022/01/03 02:28:36;;;;;;;15.93;3.70;;;;;;;;;;5015647;28;20683;-69
2022/01/03 02:31:03;;;;;;;15.03;3.53;;;;;;;;;;5016008;28;20229;-70
2022/01/03 02:33:29;;;;;;;13.83;3.13;;;;;;;;;;5015164;28;20349;-69
2022/01/03 02:35:56;;;;;;;15.63;3.73;;;;;;;;;;5016046;28;20212;-70
2022/01/03 02:38:23;;;;;;;15.87;3.93;;;;;;;;;;5015666;28;20593;-69
2022/01/03 02:40:50;;;;;;;16.87;3.57;;;;;;;;;;5017159;28;20224;-69
2022/01/03 02:43:17;;;;;;;16.20;4.10;;;;;;;;;;5016142;28;20266;-70
2022/01/03 02:45:43;;;;;;;16.70;3.30;;;;;;;;;;5016486;28;20214;-69
2022/01/03 02:48:11;;;;;;;15.00;3.27;;;;;;;;;;5015652;28;20290;-70
2022/01/03 02:50:39;;;;;;;17.60;3.77;;;;;;;;;;5015967;28;21137;-71
2022/01/03 02:53:05;;;;;;;14.43;3.10;;;;;;;;;;5013699;28;20214;-69
2022/01/03 02:55:33;;;;;;;16.23;3.20;;;;;;;;;;5018278;28;20231;-70
2022/01/03 02:58:06;;;;;;;14.07;4.13;;;;;;;;;;5015667;28;20550;-70
2022/01/03 03:00:34;;;;;;;14.57;3.60;;;;;;;;;;5014340;28;20266;-69
2022/01/03 03:03:02;;;;;;;16.63;3.37;;;;;;;;;;5014032;28;21384;-70
2022/01/03 03:05:29;;;;;;;18.67;3.80;;;;;;;;;;5015329;28;20671;-69
2022/01/03 03:07:56;;;;;;;13.70;3.43;;;;;;;;;;5012812;28;20690;-69
2022/01/03 03:10:25;;;;;;;17.43;4.23;;;;;;;;;;5014342;28;20302;-69
2022/01/03 03:12:54;;;;;;;13.40;3.17;;;;;;;;;;5016680;28;20210;-71
2022/01/03 03:15:21;;;;;;;21.17;4.17;;;;;;;;;;5014425;28;20673;-70
2022/01/03 03:17:51;;;;;;;18.07;3.87;;;;;;;;;;5014949;28;20236;-70
2022/01/03 03:20:19;;;;;;;16.90;3.43;;;;;;;;;;5016964;28;20213;-69
2022/01/03 03:22:49;;;;;;;18.50;3.43;;;;;;;;;;5014527;28;20266;-73
2022/01/03 03:25:17;;;;;;;18.50;3.77;;;;;;;;;;5013113;28;20256;-69
2022/01/03 03:27:47;;;;;;;21.23;3.77;;;;;;;;;;5014615;28;20221;-69
2022/01/03 03:30:18;;;;;;;16.47;3.23;;;;;;;;;;5014317;28;20820;-69
2022/01/03 03:32:46;;;;;;;17.57;3.93;;;;;;;;;;5012101;28;20235;-69
2022/01/03 03:35:14;;;;;;;18.27;3.87;;;;;;;;;;5014407;28;20595;-69
2022/01/03 03:37:41;;;;;;;14.77;3.50;;;;;;;;;;5014710;28;20214;-70
2022/01/03 03:40:09;;;;;;;21.30;4.47;;;;;;;;;;5014112;28;20231;-69
2022/01/03 03:42:35;;;;;;;20.33;4.37;;;;;;;;;;5015495;28;20639;-69
2022/01/03 03:45:02;;;;;;;15.07;3.80;;;;;;;;;;5015214;28;20208;-69
2022/01/03 03:47:29;;;;;;;18.07;3.33;;;;;;;;;;5014059;28;20239;-70
2022/01/03 03:49:56;;;;;;;16.70;4.07;;;;;;;;;;5014333;28;20698;-69
2022/01/03 03:52:23;;;;;;;15.47;3.93;;;;;;;;;;5014887;28;20256;-69
2022/01/03 03:54:49;;;;;;;25.90;4.93;;;;;;;;;;5013389;28;20664;-69
2022/01/03 03:57:16;;;;;;;19.63;5.50;;;;;;;;;;5014611;28;20257;-71
2022/01/03 03:59:42;;;;;;;21.67;3.90;;;;;;;;;;5013911;28;20219;-69
2022/01/03 04:02:08;;;;;;;20.70;4.47;;;;;;;;;;5013064;28;20287;-69
2022/01/03 04:04:36;;;;;;;20.90;3.73;;;;;;;;;;5014834;28;20291;-69
2022/01/03 04:07:03;;;;;;;14.07;3.73;;;;;;;;;;5016164;28;20214;-69
2022/01/03 04:09:30;;;;;;;15.03;4.03;;;;;;;;;;5012233;28;20735;-70
2022/01/03 04:11:57;;;;;;;17.90;4.20;;;;;;;;;;5014283;28;20232;-70
2022/01/03 04:14:23;;;;;;;19.40;4.47;;;;;;;;;;5016180;28;20221;-69
2022/01/03 04:16:50;;;;;;;13.80;3.80;;;;;;;;;;5012524;28;20229;-69
2022/01/03 04:19:16;;;;;;;21.03;4.30;;;;;;;;;;5014244;28;20207;-69
2022/01/03 04:21:44;;;;;;;18.63;4.67;;;;;;;;;;5015248;28;20276;-69
2022/01/03 04:24:12;;;;;;;15.10;3.23;;;;;;;;;;5012098;28;20244;-69
2022/01/03 04:26:39;;;;;;;19.43;4.50;;;;;;;;;;5013078;28;20224;-69
2022/01/03 04:29:07;;;;;;;20.10;4.83;;;;;;;;;;5015275;28;20610;-69
2022/01/03 04:31:33;;;;;;;21.87;4.60;;;;;;;;;;5011809;28;20293;-69
2022/01/03 04:34:00;;;;;;;20.50;5.50;;;;;;;;;;5014143;28;20223;-70
2022/01/03 04:36:27;;;;;;;24.30;5.13;;;;;;;;;;5012595;28;20232;-70
2022/01/03 04:38:55;;;;;;;20.00;4.57;;;;;;;;;;5012052;28;20790;-70
2022/01/03 04:41:22;;;;;;;15.90;4.00;;;;;;;;;;5013612;28;20235;-70
2022/01/03 04:43:48;;;;;;;19.43;5.00;;;;;;;;;;5014064;28;20664;-70
2022/01/03 04:46:14;;;;;;;20.83;3.97;;;;;;;;;;5012724;28;20269;-69
2022/01/03 04:48:42;;;;;;;20.60;3.83;;;;;;;;;;5013146;28;20763;-69
2022/01/03 04:51:09;;;;;;;23.73;4.93;;;;;;;;;;5013267;28;20235;-70
2022/01/03 04:53:39;;;;;;;22.20;4.20;;;;;;;;;;5011761;28;20215;-70
2022/01/03 04:56:08;;;;;;;20.50;4.90;;;;;;;;;;5013124;28;20675;-70
2022/01/03 04:58:34;;;;;;;17.03;3.57;;;;;;;;;;5015331;28;20607;-69
2022/01/03 05:01:00;;;;;;;20.83;4.13;;;;;;;;;;5013102;28;20290;-69
2022/01/03 05:03:27;;;;;;;13.53;3.40;;;;;;;;;;5011827;28;20231;-69
2022/01/03 05:05:53;;;;;;;17.43;3.80;;;;;;;;;;5014158;28;20220;-70
2022/01/03 05:08:19;;;;;;;20.63;4.20;;;;;;;;;;5012014;28;20209;-70
2022/01/03 05:10:46;;;;;;;17.97;3.97;;;;;;;;;;5012607;28;20295;-70
2022/01/03 05:13:13;;;;;;;20.80;4.53;;;;;;;;;;5013598;28;20220;-70
2022/01/03 05:15:40;;;;;;;17.73;4.00;;;;;;;;;;5013068;28;20246;-70
2022/01/03 05:18:06;;;;;;;21.30;4.20;;;;;;;;;;5012001;28;20224;-70
2022/01/03 05:20:33;;;;;;;20.67;4.23;;;;;;;;;;5013843;28;20227;-70
2022/01/03 05:22:59;;;;;;;20.87;4.57;;;;;;;;;;5013296;28;20221;-70
2022/01/03 05:25:26;;;;;;;17.60;3.90;;;;;;;;;;5011015;28;20238;-70
2022/01/03 05:27:53;;;;;;;26.13;4.27;;;;;;;;;;5012136;28;20216;-70
2022/01/03 05:30:21;;;;;;;22.80;4.77;;;;;;;;;;5012909;28;20221;-74
2022/01/03 05:32:47;;;;;;;25.10;4.30;;;;;;;;;;5010694;28;20282;-75
2022/01/03 05:35:14;;;;;;;20.57;4.73;;;;;;;;;;5012808;28;20620;-75
2022/01/03 05:37:40;;;;;;;20.20;4.67;;;;;;;;;;5012691;28;20278;-75
2022/01/03 05:40:08;;;;;;;24.37;4.93;;;;;;;;;;5010400;28;20233;-75
2022/01/03 05:42:34;;;;;;;21.57;4.30;;;;;;;;;;5011205;28;20268;-75
2022/01/03 05:45:01;;;;;;;18.80;3.87;;;;;;;;;;5013137;28;20768;-75
2022/01/03 05:47:30;;;;;;;19.20;4.40;;;;;;;;;;5011196;28;20615;-74
2022/01/03 05:49:57;;;;;;;20.73;4.80;;;;;;;;;;5012553;28;20304;-75
2022/01/03 05:52:23;;;;;;;19.93;4.87;;;;;;;;;;5013280;28;20232;-75
2022/01/03 05:54:49;;;;;;;20.07;4.33;;;;;;;;;;5012340;28;20293;-75
2022/01/03 05:57:16;;;;;;;24.37;5.83;;;;;;;;;;5011222;28;20202;-74
2022/01/03 05:59:42;;;;;;;21.33;4.73;;;;;;;;;;5012461;28;20209;-75
2022/01/03 06:02:09;;;;;;;20.07;5.47;;;;;;;;;;5011078;28;20301;-75
2022/01/03 06:04:52;;;;;;;20.77;4.40;;;;;;;;;;5012666;28;20218;-74
2022/01/03 06:07:19;;;;;;;21.50;5.10;;;;;;;;;;5013656;28;20239;-74
2022/01/03 06:09:45;;;;;;;21.20;4.60;;;;;;;;;;5011602;28;20233;-75
2022/01/03 06:12:12;;;;;;;21.40;5.17;;;;;;;;;;5011558;28;20235;-74
2022/01/03 06:14:39;;;;;;;19.63;4.20;;;;;;;;;;5014998;28;20253;-74
2022/01/03 06:17:06;;;;;;;25.30;4.63;;;;;;;;;;5011576;28;20315;-74
2022/01/03 06:19:33;;;;;;;19.87;5.00;;;;;;;;;;5012550;28;20257;-74
2022/01/03 06:22:02;;;;;;;30.90;6.50;;;;;;;;;;5011464;28;20274;-74
2022/01/03 06:24:29;;;;;;;23.87;5.93;;;;;;;;;;5010474;28;20795;-74
2022/01/03 06:26:55;;;;;;;27.77;5.30;;;;;;;;;;5010149;28;20212;-74
2022/01/03 06:29:22;;;;;;;26.87;5.37;;;;;;;;;;5014868;28;20672;-74
2022/01/03 06:31:50;;;;;;;26.57;5.43;;;;;;;;;;5012046;28;20645;-74
2022/01/03 06:34:18;;;;;;;18.43;4.23;;;;;;;;;;5011038;28;20627;-74
2022/01/03 06:36:44;;;;;;;23.13;4.50;;;;;;;;;;5012703;28;20212;-74
2022/01/03 06:39:12;;;;;;;24.17;5.03;;;;;;;;;;5011073;28;20213;-74
2022/01/03 06:41:40;;;;;;;19.87;4.20;;;;;;;;;;5011432;28;20235;-74
2022/01/03 06:44:07;;;;;;;26.67;5.80;;;;;;;;;;5011374;28;20210;-74
2022/01/03 06:46:34;;;;;;;25.50;5.17;;;;;;;;;;5010092;28;20233;-75
2022/01/03 06:49:02;;;;;;;26.63;6.47;;;;;;;;;;5011132;28;20213;-74
2022/01/03 06:51:34;;;;;;;25.03;5.90;;;;;;;;;;5012290;28;20239;-74
2022/01/03 06:54:00;;;;;;;21.37;4.67;;;;;;;;;;5011195;28;20709;-73
2022/01/03 06:56:28;;;;;;;22.53;5.87;;;;;;;;;;5011716;28;20252;-74
2022/01/03 06:58:54;;;;;;;27.47;5.60;;;;;;;;;;5012030;28;20220;-75
2022/01/03 07:01:21;;;;;;;28.10;5.43;;;;;;;;;;5011867;28;20615;-74
2022/01/03 07:03:47;;;;;;;23.97;4.87;;;;;;;;;;5010102;28;20263;-75
2022/01/03 07:06:14;;;;;;;24.57;5.37;;;;;;;;;;5011129;28;20208;-75
2022/01/03 07:08:40;;;;;;;31.03;5.43;;;;;;;;;;5010300;28;20209;-74
2022/01/03 07:11:07;;;;;;;21.63;4.30;;;;;;;;;;5012741;28;20634;-74
2022/01/03 07:13:42;;;;;;;31.77;5.67;;;;;;;;;;5013712;28;20221;-75
2022/01/03 07:18:59;;;;;;;25.83;4.83;;;;;;;;;;5012990;28;20216;-74
2022/01/03 07:21:28;;;;;;;23.90;5.10;;;;;;;;;;5012811;28;20201;-74
2022/01/03 07:23:54;;;;;;;25.73;5.07;;;;;;;;;;5012253;28;20245;-74
2022/01/03 07:26:21;;;;;;;24.03;5.37;;;;;;;;;;5011648;28;20290;-74
2022/01/03 07:28:49;;;;;;;22.90;4.50;;;;;;;;;;5012516;28;20669;-74
2022/01/03 07:31:16;;;;;;;26.53;5.23;;;;;;;;;;5011798;28;20221;-74
2022/01/03 07:33:42;;;;;;;23.53;4.77;;;;;;;;;;5012763;28;20734;-74
2022/01/03 07:36:09;;;;;;;26.07;4.80;;;;;;;;;;5011417;28;20954;-74
2022/01/03 07:38:36;;;;;;;23.17;5.80;;;;;;;;;;5011960;28;20264;-74
2022/01/03 07:41:04;;;;;;;22.10;4.50;;;;;;;;;;5011271;28;20273;-74
2022/01/03 07:43:30;;;;;;;22.10;5.07;;;;;;;;;;5012868;28;20613;-74
2022/01/03 07:45:58;;;;;;;20.60;4.33;;;;;;;;;;5009898;28;20282;-74
2022/01/03 07:48:25;;;;;;;20.80;5.30;;;;;;;;;;5011563;28;20246;-75
2022/01/03 07:50:51;;;;;;;21.07;5.53;;;;;;;;;;5012818;28;20999;-75
2022/01/03 07:53:18;;;;;;;28.60;5.53;;;;;;;;;;5012283;28;20695;-74
2022/01/03 07:55:44;;;;;;;25.27;5.20;;;;;;;;;;5012426;28;20279;-75
2022/01/03 07:58:14;;;;;;;24.07;4.73;;;;;;;;;;5010541;28;20762;-74
2022/01/03 08:00:40;;;;;;;25.90;5.00;;;;;;;;;;5012074;28;20237;-75
2022/01/03 08:03:08;;;;;;;26.23;5.57;;;;;;;;;;5012222;28;20232;-75
2022/01/03 08:05:34;;;;;;;28.77;6.40;;;;;;;;;;5012186;28;20209;-75
2022/01/03 08:08:02;;;;;;;20.57;4.73;;;;;;;;;;5012634;28;20269;-75
2022/01/03 08:10:28;;;;;;;27.83;6.03;;;;;;;;;;5010530;28;20279;-74
2022/01/03 08:12:55;;;;;;;21.30;4.87;;;;;;;;;;5013990;28;20229;-74
2022/01/03 08:15:23;;;;;;;30.33;6.53;;;;;;;;;;5011337;28;20452;-76
2022/01/03 08:17:50;;;;;;;26.77;5.23;;;;;;;;;;5012748;28;20229;-74
2022/01/03 08:20:19;;;;;;;26.37;6.20;;;;;;;;;;5010866;28;20628;-76
2022/01/03 08:22:46;;;;;;;27.20;4.70;;;;;;;;;;5011202;28;20653;-76
2022/01/03 08:25:12;;;;;;;23.30;4.60;;;;;;;;;;5012038;28;20282;-76
2022/01/03 08:27:39;;;;;;;25.27;6.03;;;;;;;;;;5009915;28;20247;-76
2022/01/03 08:30:07;;;;;;;23.17;4.60;;;;;;;;;;5011921;28;20631;-76
2022/01/03 08:32:33;;;;;;;25.53;5.80;;;;;;;;;;5012090;28;20773;-76
2022/01/03 08:35:01;;;;;;;23.00;5.70;;;;;;;;;;5010334;28;20233;-76
2022/01/03 08:37:28;;;;;;;25.43;5.23;;;;;;;;;;5010817;28;20243;-76
2022/01/03 08:39:55;;;;;;;19.73;4.60;;;;;;;;;;5009855;28;20232;-76
2022/01/03 08:42:23;;;;;;;20.03;4.90;;;;;;;;;;5011437;28;20566;-73
2022/01/03 08:44:50;;;;;;;27.57;6.40;;;;;;;;;;5010868;28;20318;-76
2022/01/03 08:47:16;;;;;;;18.43;4.37;;;;;;;;;;5011737;28;20925;-76
2022/01/03 08:49:43;;;;;;;24.30;4.97;;;;;;;;;;5013046;28;20215;-75
2022/01/03 08:52:10;;;;;;;20.20;4.07;;;;;;;;;;5005763;28;20351;-75
2022/01/03 08:54:38;;;;;;;20.63;6.17;;;;;;;;;;5006733;28;20220;-75
2022/01/03 08:57:04;;;;;;;21.90;4.80;;;;;;;;;;5007093;28;20244;-75
2022/01/03 08:59:31;;;;;;;18.00;4.70;;;;;;;;;;5008238;28;20600;-74
2022/01/03 09:01:57;;;;;;;22.67;4.70;;;;;;;;;;5006095;28;20228;-75
2022/01/03 09:04:23;;;;;;;21.70;4.87;;;;;;;;;;5006657;28;20665;-75
2022/01/03 09:06:52;;;;;;;21.37;4.43;;;;;;;;;;5005543;28;20265;-74
2022/01/03 09:09:18;;;;;;;22.00;4.80;;;;;;;;;;5008066;28;20225;-74
2022/01/03 09:11:46;;;;;;;26.23;5.87;;;;;;;;;;5005500;28;20235;-74
2022/01/03 09:14:12;;;;;;;25.90;5.17;;;;;;;;;;5007077;28;20213;-74
2022/01/03 09:16:39;;;;;;;22.93;5.50;;;;;;;;;;5007673;28;20230;-75
2022/01/03 09:19:06;;;;;;;22.00;4.50;;;;;;;;;;5006931;28;20209;-74
2022/01/03 09:21:32;;;;;;;18.00;4.33;;;;;;;;;;5006531;28;20324;-74
2022/01/03 09:24:19;;;;;;;21.60;4.50;;;;;;;;;;5006233;28;20332;-74
2022/01/03 09:29:31;;;;;;;22.80;4.83;;;;;;;;;;5005895;28;20593;-74
2022/01/03 09:31:58;;;;;;;19.00;4.50;;;;;;;;;;5007291;28;20231;-74
2022/01/03 09:34:25;;;;;;;25.50;5.63;;;;;;;;;;5005036;28;20214;-74
2022/01/03 09:36:51;;;;;;;19.77;4.70;;;;;;;;;;5006045;28;20220;-74
2022/01/03 09:39:18;;;;;;;29.20;4.80;;;;;;;;;;5006093;28;20224;-74
2022/01/03 09:41:53;;;;;;;16.77;4.13;;;;;;;;;;5005042;28;20730;-74
2022/01/03 09:44:28;;;;;;;23.30;4.67;;;;;;;;;;5005357;28;20290;-74
2022/01/03 09:46:55;;;;;;;20.23;4.47;;;;;;;;;;5006658;28;21084;-74
2022/01/03 09:49:24;;;;;;;21.87;4.47;;;;;;;;;;5005550;28;20272;-74
2022/01/03 09:51:51;;;;;;;21.03;4.33;;;;;;;;;;5005135;28;20261;-75
2022/01/03 09:54:20;;;;;;;23.37;5.23;;;;;;;;;;5005852;28;20233;-75
2022/01/03 09:56:51;;;;;;;25.97;4.93;;;;;;;;;;5005933;28;20231;-74
2022/01/03 09:59:19;;;;;;;26.50;5.43;;;;;;;;;;5005728;28;20213;-73
2022/01/03 10:01:46;;;;;;;22.50;5.83;;;;;;;;;;5004262;28;20288;-74
2022/01/03 10:04:14;;;;;;;21.40;4.70;;;;;;;;;;5004419;28;20279;-75
2022/01/03 10:06:41;;;;;;;26.03;5.70;;;;;;;;;;5006223;28;20221;-74
2022/01/03 10:09:07;;;;;;;19.77;5.27;;;;;;;;;;5005964;28;21112;-74
2022/01/03 10:11:34;;;;;;;22.70;4.73;;;;;;;;;;5005672;28;20673;-74
2022/01/03 10:14:02;;;;;;;16.73;4.50;;;;;;;;;;5006284;28;20235;-74
2022/01/03 10:16:29;;;;;;;19.13;4.63;;;;;;;;;;5005655;28;20618;-75
2022/01/03 10:18:56;;;;;;;22.50;5.00;;;;;;;;;;5006669;28;20213;-74
2022/01/03 10:21:35;;;;;;;18.47;4.70;;;;;;;;;;5007642;28;20214;-74
2022/01/03 10:24:01;;;;;;;25.23;5.27;;;;;;;;;;5004103;28;20256;-74
2022/01/03 10:26:28;;;;;;;22.73;5.77;;;;;;;;;;5004165;28;20242;-74
2022/01/03 10:29:15;;;;;;;17.50;4.47;;;;;;;;;;5005404;28;20215;-74
2022/01/03 10:31:42;;;;;;;22.03;4.83;;;;;;;;;;5005321;28;20237;-74
2022/01/03 10:34:11;;;;;;;25.03;5.67;;;;;;;;;;5004458;28;20234;-74
2022/01/03 10:36:38;;;;;;;23.60;5.13;;;;;;;;;;5007041;28;20686;-74
2022/01/03 10:39:13;;;;;;;21.70;5.23;;;;;;;;;;5006656;28;20217;-74
2022/01/03 10:41:39;;;;;;;26.63;4.47;;;;;;;;;;5006275;28;20288;-74
2022/01/03 10:44:06;;;;;;;25.47;5.03;;;;;;;;;;5009263;28;20216;-74
2022/01/03 10:46:35;;;;;;;18.07;3.73;;;;;;;;;;5012998;28;20308;-74
2022/01/03 10:49:09;;;;;;;23.70;4.43;;;;;;;;;;5013297;28;20289;-74
2022/01/03 10:51:37;;;;;;;20.17;4.27;;;;;;;;;;5013188;28;20241;-75
2022/01/03 10:54:09;;;;;;;23.73;5.27;;;;;;;;;;5014291;28;20281;-74
2022/01/03 10:56:38;;;;;;;22.77;5.70;;;;;;;;;;5013471;28;20956;-75
2022/01/03 10:59:21;;;;;;;27.83;6.17;;;;;;;;;;5013550;28;20217;-74
2022/01/03 11:01:52;;;;;;;27.57;6.30;;;;;;;;;;5013408;28;20243;-74
2022/01/03 11:04:30;;;;;;;23.10;5.13;;;;;;;;;;5013694;28;20228;-74
2022/01/03 11:13:14;;;;;;;22.77;5.10;;;;;;;;;;5013245;28;20766;-74
2022/01/03 11:15:43;;;;;;;26.00;6.27;;;;;;;;;;5013262;28;20226;-74
2022/01/03 11:18:13;;;;;;;26.93;6.43;;;;;;;;;;5011879;28;20275;-75
2022/01/03 11:20:40;;;;;;;18.67;5.10;;;;;;;;;;5013118;28;20259;-74
2022/01/03 11:23:07;;;;;;;22.20;5.10;;;;;;;;;;5011456;28;20219;-75
2022/01/03 11:25:35;;;;;;;29.90;5.97;;;;;;;;;;5012710;28;20407;-74
2022/01/03 11:28:02;;;;;;;22.47;5.20;;;;;;;;;;5011159;28;20220;-74
2022/01/03 11:30:30;;;;;;;19.70;5.30;;;;;;;;;;5014335;28;20213;-74
2022/01/03 11:32:57;;;;;;;25.30;5.63;;;;;;;;;;5011513;28;20320;-74
2022/01/03 11:35:25;;;;;;;20.57;4.57;;;;;;;;;;5012852;28;20660;-74
2022/01/03 11:37:53;;;;;;;27.60;5.20;;;;;;;;;;5012725;28;20651;-74
2022/01/03 11:40:21;;;;;;;18.47;6.23;;;;;;;;;;5012705;28;20264;-74
2022/01/03 11:42:48;;;;;;;20.83;5.07;;;;;;;;;;5013061;28;20673;-74
2022/01/03 11:45:14;;;;;;;23.20;5.23;;;;;;;;;;5011084;28;20682;-74
2022/01/03 11:47:41;;;;;;;25.33;5.37;;;;;;;;;;5012780;28;20385;-74
2022/01/03 11:50:09;;;;;;;23.40;4.73;;;;;;;;;;5012524;28;20587;-74
2022/01/03 11:52:40;;;;;;;29.83;6.77;;;;;;;;;;5012190;28;20269;-74
2022/01/03 11:55:08;;;;;;;18.57;5.43;;;;;;;;;;5009097;28;20232;-74
2022/01/03 11:58:09;;;;;;;20.17;5.53;;;;;;;;;;5013471;28;21046;-74
2022/01/03 12:03:40;;;;;;;21.93;5.47;;;;;;;;;;5012761;28;20284;-74
2022/01/03 12:06:08;;;;;;;21.77;6.03;;;;;;;;;;5011800;28;20226;-74
2022/01/03 12:08:37;;;;;;;24.50;6.53;;;;;;;;;;5012673;28;20617;-74
2022/01/03 12:11:18;;;;;;;23.90;5.07;;;;;;;;;;5012449;28;20227;-74
2022/01/03 12:13:52;;;;;;;18.77;5.00;;;;;;;;;;5010868;28;20238;-74
2022/01/03 12:16:36;;;;;;;20.63;5.33;;;;;;;;;;5014132;28;20222;-74
2022/01/03 12:19:06;;;;;;;16.83;4.70;;;;;;;;;;5011007;28;20207;-74
2022/01/03 12:21:53;;;;;;;21.73;4.90;;;;;;;;;;5012826;28;20572;-73
2022/01/03 12:24:55;;;;;;;23.00;5.10;;;;;;;;;;5011577;28;20676;-74
2022/01/03 12:27:29;;;;;;;19.00;4.80;;;;;;;;;;5009739;28;20229;-74
2022/01/03 12:30:10;;;;;;;20.60;5.37;;;;;;;;;;5012942;28;20210;-74
2022/01/03 12:32:40;;;;;;;22.10;4.90;;;;;;;;;;5009939;28;20617;-74
2022/01/03 12:35:26;;;;;;;17.03;4.33;;;;;;;;;;5011304;28;20755;-74
2022/01/03 12:38:13;;;;;;;21.90;5.63;;;;;;;;;;5011843;28;20293;-74
2022/01/03 12:40:49;;;;;;;24.00;5.53;;;;;;;;;;5012069;28;20227;-74
2022/01/03 12:43:18;;;;;;;22.83;5.47;;;;;;;;;;5012311;28;20229;-73
2022/01/03 12:45:53;;;;;;;21.23;4.90;;;;;;;;;;5011512;28;20233;-73
2022/01/03 12:48:21;;;;;;;28.47;6.03;;;;;;;;;;5012678;28;20229;-73
2022/01/03 12:51:20;;;;;;;27.53;5.83;;;;;;;;;;5010058;28;20230;-73
2022/01/03 12:53:51;;;;;;;16.80;4.77;;;;;;;;;;5011963;28;20245;-73
2022/01/03 12:56:28;;;;;;;22.43;4.37;;;;;;;;;;5011481;28;20219;-73
2022/01/03 12:58:59;;;;;;;17.90;4.73;;;;;;;;;;5010651;28;20284;-73
2022/01/03 13:01:33;;;;;;;22.40;4.83;;;;;;;;;;5013091;28;20713;-73
2022/01/03 13:04:03;;;;;;;18.57;4.60;;;;;;;;;;5010147;28;20233;-73
2022/01/03 13:06:31;;;;;;;27.47;6.70;;;;;;;;;;5011800;28;20247;-73
2022/01/03 13:09:09;;;;;;;23.53;4.83;;;;;;;;;;5009405;28;20631;-73
2022/01/03 13:11:38;;;;;;;24.23;5.73;;;;;;;;;;5011286;28;20233;-73
2022/01/03 13:14:08;;;;;;;30.50;6.03;;;;;;;;;;5010137;28;20290;-74
2022/01/03 13:16:37;;;;;;;22.00;4.63;;;;;;;;;;5010342;28;20258;-74
2022/01/03 13:19:06;;;;;;;18.30;4.53;;;;;;;;;;5010216;28;20886;-74
2022/01/03 13:21:36;;;;;;;23.50;5.00;;;;;;;;;;5009956;28;20341;-73
2022/01/03 13:24:07;;;;;;;18.17;4.77;;;;;;;;;;5011406;28;20237;-74
2022/01/03 13:26:34;;;;;;;22.10;4.67;;;;;;;;;;5008590;28;20235;-74
2022/01/03 13:29:03;;;;;;;22.23;5.63;;;;;;;;;;5009750;28;20269;-74
2022/01/03 13:31:31;;;;;;;25.97;4.90;;;;;;;;;;5008153;28;20230;-73
2022/01/03 13:33:58;;;;;;;27.73;5.80;;;;;;;;;;5011800;28;20251;-73
2022/01/03 13:36:33;;;;;;;24.37;6.43;;;;;;;;;;5008125;28;20259;-73
2022/01/03 13:39:07;;;;;;;26.57;5.40;;;;;;;;;;5010968;28;20272;-73
2022/01/03 13:41:36;;;;;;;21.20;4.00;;;;;;;;;;5009134;28;20233;-73
2022/01/03 13:44:03;;;;;;;21.47;5.13;;;;;;;;;;5010068;28;20211;-73
2022/01/03 13:49:21;;;;;;;28.80;4.57;;;;;;;;;;5009810;28;20221;-73
2022/01/03 13:51:50;;;;;;;24.37;5.93;;;;;;;;;;5012260;28;20234;-73
2022/01/03 13:54:26;;;;;;;21.73;5.10;;;;;;;;;;5009108;28;20287;-73
2022/01/03 13:56:53;;;;;;;19.37;4.57;;;;;;;;;;5008701;28;20210;-73
2022/01/03 13:59:22;;;;;;;18.63;3.80;;;;;;;;;;5009156;28;20209;-74
2022/01/03 14:01:51;;;;;;;18.83;4.30;;;;;;;;;;5010139;28;20274;-73
2022/01/03 14:04:18;;;;;;;16.43;5.03;;;;;;;;;;5009932;28;20210;-74
2022/01/03 14:06:46;;;;;;;16.53;3.90;;;;;;;;;;5010955;28;20367;-74
2022/01/03 14:09:14;;;;;;;23.70;3.83;;;;;;;;;;5005731;28;20482;-74
2022/01/03 14:11:40;;;;;;;20.00;4.03;;;;;;;;;;5007547;28;20236;-74
2022/01/03 14:14:11;;;;;;;19.00;5.07;;;;;;;;;;5006439;28;20670;-74
2022/01/03 14:16:53;;;;;;;16.57;4.77;;;;;;;;;;5006394;28;21331;-74
2022/01/03 14:19:20;;;;;;;16.83;3.63;;;;;;;;;;5011673;28;20221;-74
2022/01/03 14:21:48;;;;;;;19.03;4.00;;;;;;;;;;5008375;28;20299;-74
2022/01/03 14:24:15;;;;;;;18.37;4.03;;;;;;;;;;5008920;28;20310;-74
2022/01/03 14:26:53;;;;;;;15.27;3.77;;;;;;;;;;5009966;28;20233;-74
2022/01/03 14:29:20;;;;;;;18.83;3.60;;;;;;;;;;5010200;28;20368;-74
2022/01/03 14:31:48;;;;;;;15.53;3.87;;;;;;;;;;5012023;28;20237;-74
2022/01/03 14:34:21;;;;;;;16.83;4.37;;;;;;;;;;5010486;28;20246;-74
2022/01/03 14:36:49;;;;;;;18.63;4.73;;;;;;;;;;5010435;28;20215;-74
2022/01/03 14:39:15;;;;;;;19.10;5.07;;;;;;;;;;5010982;28;20225;-74
2022/01/03 14:41:42;;;;;;;19.40;4.50;;;;;;;;;;5012873;28;20747;-74
2022/01/03 14:44:10;;;;;;;16.57;3.93;;;;;;;;;;5010122;28;20226;-74
2022/01/03 14:46:38;;;;;;;18.30;3.73;;;;;;;;;;5011474;28;20236;-74
2022/01/03 14:49:07;;;;;;;18.27;3.80;;;;;;;;;;5008776;28;21119;-74
2022/01/03 14:51:38;;;;;;;16.50;3.47;;;;;;;;;;5011614;28;20284;-74
2022/01/03 14:54:17;;;;;;;15.37;3.73;;;;;;;;;;5012384;28;20232;-74
2022/01/03 14:56:45;;;;;;;14.73;3.80;;;;;;;;;;5010128;28;20236;-74
2022/01/03 14:59:13;;;;;;;16.03;3.33;;;;;;;;;;5014283;28;20212;-74
2022/01/03 15:01:40;;;;;;;18.50;3.97;;;;;;;;;;5014114;28;20243;-74